Portada
METAR-TAF:

METAR-TAF

Aeroports :

Taiyuan, Xina

latitud: 37-47N, longitud: 112-33E, altitud: 779 m

Observació

L'informe es va fer fa 15 minuts, a les 12:00 UTC
Vent 2 kt amb direcció variable
Temperatura 10°C
Humitat 34%
Pressió 1018 hPa
Visibilitat 10 km o més
sense núvols per sota de 1500 mi sense presència de cumulonimbus.

METAR: ZBYN 281200Z VRB01MPS CAVOK 10/M05 Q1018 NOSIG

Hora: 20:15 (12:15 UTC)

Pronòstic

L'informe es va fer fa 3 hores i 10 minuts, a les 09:05 UTC
Pronòstic vàlid del 28 a les 12 UTC al 29 a les 12 UTC
Vent 6 kt del Est
Visibilitat: 6000 m

TAF: ZBYN 280905Z 2812/2912 09003MPS 6000 NSC TX15/2907Z TN01/2822Z

Observacions i pronòstics meteorològics de més de 4000 aeroports (METAR i TAF).

Les estacions disponibles són els punts grocs i vermells al mapa.

Posi el ratolí al punt desitjat per veure el nom de l'estació.

Feu clic per veure les observacions i els pronòstics meteorològics.

Per canviar el mapa: feu clic els botons verds amb una creu de color negre per apropar; al botó verd amb un guió per allunyar la imatge; o en les fletxes verdes per a mapes adjacents.


METAR-TAF: